Terminal Aerodrome Forecast
Issued by NWS

Home | Current Version | Previous Version | Text Only | Print | Product List | Glossary On
Versions: 1 2 3 4 5 6 7 8 9 10 11 12 13 14 15 16 17 18 19
000
FTUS44 KMAF 311500 AAA
TAFPEQ
TAF AMD
KPEQ 311516Z 3115/0112 36011KT P6SM SCT035 BKN130
      TEMPO 3115/3117 5SM -TSRA BKN025 BKN040CB
     FM311800 01010KT P6SM SCT050 BKN130=

USA.gov is the U.S. government's official web portal to all federal, state and local government web resources and services.